Time;durP1;ratioP1;P1;durP2;ratioP2;P2;SDS_P1;SDS_P2;PMS_P1;PMS_P2;Temp;Humidity;BMP_temperature;BMP_pressure;BME280_temperature;BME280_humidity;BME280_pressure;Samples;Min_cycle;Max_cycle;Signal;HPM_P1;HPM_P2
2023/03/01 00:01:28;;;;;;;10.15;5.00;;;;;;;-1.20;67.70;103035.88;5012434;28;20022;-82
2023/03/01 00:03:55;;;;;;;10.50;5.18;;;;;;;-1.24;68.58;103031.38;5012769;28;20037;-82
2023/03/01 00:06:23;;;;;;;7.78;4.68;;;;;;;-1.24;67.43;103031.38;5011840;28;20105;-82
2023/03/01 00:08:49;;;;;;;8.75;4.93;;;;;;;-1.30;68.68;103031.84;5012312;28;20133;-82
2023/03/01 00:11:24;;;;;;;10.88;5.47;;;;;;;-1.30;67.41;103033.50;5012819;28;20113;-81
2023/03/01 00:13:52;;;;;;;9.75;4.70;;;;;;;-1.28;68.50;103042.13;5012904;28;20081;-82
2023/03/01 00:16:39;;;;;;;9.05;4.55;;;;;;;-1.30;67.24;103036.94;5012783;28;20021;-82
2023/03/01 00:19:04;;;;;;;6.70;4.18;;;;;;;-1.31;66.44;103037.72;5011961;28;20029;-82
2023/03/01 00:21:30;;;;;;;6.55;3.92;;;;;;;-1.35;67.05;103022.13;5012169;28;20089;-82
2023/03/01 00:23:56;;;;;;;9.13;4.85;;;;;;;-1.36;67.67;103033.09;5020504;28;20076;-82
2023/03/01 00:26:23;;;;;;;7.03;4.10;;;;;;;-1.37;66.92;103031.31;5011657;28;20113;-82
2023/03/01 00:28:49;;;;;;;6.50;4.10;;;;;;;-1.37;66.77;103028.75;5012620;28;20281;-82
2023/03/01 00:31:20;;;;;;;5.63;3.58;;;;;;;-1.36;66.90;103033.09;5015970;28;20037;-82
2023/03/01 00:33:46;;;;;;;5.75;3.63;;;;;;;-1.40;66.71;103030.31;5014892;28;20025;-82
2023/03/01 00:36:13;;;;;;;6.75;3.70;;;;;;;-1.41;67.62;103030.22;5016276;28;20060;-82
2023/03/01 00:38:41;;;;;;;5.43;3.30;;;;;;;-1.41;67.23;103031.09;5020673;28;20026;-82
2023/03/01 00:41:08;;;;;;;5.15;3.35;;;;;;;-1.46;67.32;103024.78;5035006;28;20430;-82
2023/03/01 00:43:36;;;;;;;5.22;3.10;;;;;;;-1.54;67.04;103012.31;5035554;28;20359;-82
2023/03/01 00:46:15;;;;;;;4.45;3.00;;;;;;;-1.45;67.13;103036.75;5016118;28;20027;-82
2023/03/01 00:48:41;;;;;;;4.70;2.80;;;;;;;-1.48;68.32;103022.91;5014734;28;20033;-82
2023/03/01 00:51:07;;;;;;;6.03;3.25;;;;;;;-1.48;67.91;103021.28;5016023;28;20022;-82
2023/03/01 00:53:33;;;;;;;8.32;4.40;;;;;;;-1.55;70.42;103016.50;5033878;28;20390;-82
2023/03/01 00:55:58;;;;;;;7.18;4.10;;;;;;;-1.56;68.85;103019.81;5034762;28;20025;-82
2023/03/01 00:58:24;;;;;;;6.25;3.80;;;;;;;-1.61;68.54;103004.22;5035100;28;20092;-82
2023/03/01 01:00:55;;;;;;;6.85;3.60;;;;;;;-1.66;67.96;102992.84;5034643;28;20099;-82
2023/03/01 01:03:21;;;;;;;6.10;3.60;;;;;;;-1.64;67.67;103000.59;5035505;28;20021;-82
2023/03/01 01:05:46;;;;;;;6.68;3.88;;;;;;;-1.64;68.45;103003.13;5031355;28;20042;-82
2023/03/01 01:08:12;;;;;;;4.88;3.25;;;;;;;-1.68;69.07;103009.69;5034392;28;20033;-82
2023/03/01 01:10:37;;;;;;;6.65;4.00;;;;;;;-1.72;69.82;103002.59;5034851;28;20496;-82
2023/03/01 01:13:03;;;;;;;6.40;3.75;;;;;;;-1.72;69.20;103000.94;5034706;28;20095;-82
2023/03/01 01:15:28;;;;;;;5.95;3.50;;;;;;;-1.73;68.27;103009.38;5034025;28;20539;-82
2023/03/01 01:17:54;;;;;;;8.20;3.80;;;;;;;-1.74;69.86;103009.22;5034903;28;20022;-82
2023/03/01 01:20:20;;;;;;;7.63;3.95;;;;;;;-1.76;68.79;103006.59;5034888;28;20022;-82
2023/03/01 01:22:45;;;;;;;8.05;4.22;;;;;;;-1.83;70.91;102996.78;5033682;28;20032;-82
2023/03/01 01:25:10;;;;;;;8.25;4.25;;;;;;;-1.83;69.27;102994.22;5034723;28;20024;-82
2023/03/01 01:27:36;;;;;;;5.13;3.40;;;;;;;-1.84;68.78;102984.81;5034718;28;20105;-83
2023/03/01 01:30:03;;;;;;;5.28;3.40;;;;;;;-1.90;69.30;102971.63;5033849;28;20429;-82
2023/03/01 01:32:28;;;;;;;6.07;3.50;;;;;;;-1.89;69.76;102969.22;5034702;28;20124;-82
2023/03/01 01:34:53;;;;;;;6.22;3.20;;;;;;;-1.90;69.49;102975.09;5034873;28;20033;-82
2023/03/01 01:37:19;;;;;;;4.68;3.00;;;;;;;-1.90;69.22;102972.53;5033916;28;20469;-82
2023/03/01 01:39:44;;;;;;;4.50;3.00;;;;;;;-1.91;68.86;102968.22;5033866;28;20037;-82
2023/03/01 01:42:17;;;;;;;5.57;3.40;;;;;;;-1.91;71.69;102967.31;5033522;28;20029;-82
2023/03/01 01:44:46;;;;;;;5.30;3.40;;;;;;;-1.94;68.96;102956.94;5033396;28;20021;-82
2023/03/01 01:47:16;;;;;;;5.38;3.40;;;;;;;-1.98;69.31;102954.97;5034116;28;20397;-82
2023/03/01 01:49:47;;;;;;;7.00;3.60;;;;;;;-1.97;70.16;102957.59;5033776;28;20481;-83
2023/03/01 01:52:24;;;;;;;4.85;3.10;;;;;;;-1.99;69.50;102961.72;5033733;28;20100;-82
2023/03/01 01:54:54;;;;;;;6.03;3.40;;;;;;;-2.01;68.92;102955.63;5034240;28;20184;-82
2023/03/01 01:57:25;;;;;;;8.18;4.50;;;;;;;-2.06;71.21;102951.88;5033389;28;20034;-82
2023/03/01 01:59:56;;;;;;;8.88;4.20;;;;;;;-2.04;70.26;102961.41;5034353;28;20071;-82
2023/03/01 02:02:21;;;;;;;6.65;4.00;;;;;;;-2.05;71.58;102952.00;5034391;28;20029;-82
2023/03/01 02:04:49;;;;;;;6.13;3.90;;;;;;;-2.07;70.55;102945.91;5032769;28;20548;-82
2023/03/01 02:07:18;;;;;;;7.22;3.70;;;;;;;-2.11;69.99;102936.28;5033723;28;20149;-82
2023/03/01 02:09:46;;;;;;;4.88;3.40;;;;;;;-2.08;69.84;102943.22;5033840;28;20117;-82
2023/03/01 02:12:15;;;;;;;6.90;3.30;;;;;;;-2.09;70.43;102947.44;5033444;28;20029;-82
2023/03/01 02:14:40;;;;;;;6.57;3.42;;;;;;;-2.14;70.40;102936.09;5033345;28;20349;-83
2023/03/01 02:17:05;;;;;;;6.10;3.65;;;;;;;-2.15;70.78;102931.75;5032106;28;20108;-82
2023/03/01 02:19:51;;;;;;;4.88;3.20;;;;;;;-2.15;70.02;102933.41;5029435;28;20501;-82
2023/03/01 02:22:32;;;;;;;6.13;3.53;;;;;;;-2.16;70.50;102930.00;5014204;28;20375;-82
2023/03/01 02:25:18;;;;;;;6.80;3.80;;;;;;;-2.24;71.93;102926.00;5014165;28;20033;-82
2023/03/01 02:28:01;;;;;;;;;;;;;;;-2.23;72.20;102928.69;5014301;28;20030;-82
2023/03/01 02:30:28;;;;;;;7.50;4.40;;;;;;;-2.26;72.85;102938.63;5013495;28;19968;-82
2023/03/01 02:33:02;;;;;;;11.35;5.30;;;;;;;-2.29;73.47;102933.31;5013164;28;20103;-82
2023/03/01 02:35:30;;;;;;;11.02;5.50;;;;;;;-2.36;73.90;102926.91;5013321;28;20041;-82
2023/03/01 02:38:01;;;;;;;9.60;4.80;;;;;;;-2.31;72.21;102933.97;5013366;28;20113;-82
2023/03/01 02:40:31;;;;;;;7.75;4.63;;;;;;;-2.34;72.46;102932.13;5012508;28;20029;-82
2023/03/01 02:42:58;;;;;;;10.15;5.10;;;;;;;-2.39;74.23;102930.88;5013439;28;20033;-81
2023/03/01 02:45:25;;;;;;;13.02;6.15;;;;;;;-2.39;74.56;102934.34;5013646;28;20117;-82
2023/03/01 02:47:55;;;;;;;11.93;6.03;;;;;;;-2.43;74.00;102927.25;5012830;28;20389;-82
2023/03/01 02:50:29;;;;;;;11.68;5.55;;;;;;;-2.38;73.18;102940.28;5013374;28;20018;-82
2023/03/01 02:53:03;;;;;;;9.25;4.95;;;;;;;-2.40;73.59;102937.66;5012941;28;20500;-82
2023/03/01 02:55:29;;;;;;;12.05;5.65;;;;;;;-2.45;74.87;102935.56;5012712;28;20168;-81
2023/03/01 02:57:56;;;;;;;9.35;4.78;;;;;;;-2.49;73.22;102930.22;5031674;28;20061;-81
2023/03/01 03:00:27;;;;;;;11.38;5.30;;;;;;;-2.47;74.00;102935.41;5032680;28;20026;-82
2023/03/01 03:02:53;;;;;;;10.05;4.88;;;;;;;-2.46;73.29;102932.09;5032337;28;20065;-82
2023/03/01 03:05:22;;;;;;;9.45;5.03;;;;;;;-2.47;73.89;102929.47;5032937;28;20025;-81
2023/03/01 03:07:48;;;;;;;7.50;4.40;;;;;;;-2.50;74.04;102925.06;5031785;28;20045;-81
2023/03/01 03:10:21;;;;;;;6.32;3.85;;;;;;;-2.49;73.41;102926.81;5016502;28;20077;-81
2023/03/01 03:12:51;;;;;;;7.53;4.00;;;;;;;-2.50;73.44;102932.69;5012997;28;20030;-82
2023/03/01 03:15:20;;;;;;;7.28;4.00;;;;;;;-2.53;74.05;102937.53;5012274;28;20030;-82
2023/03/01 03:17:49;;;;;;;7.22;3.90;;;;;;;-2.59;74.35;102922.72;5012620;28;20504;-82
2023/03/01 03:20:20;;;;;;;8.90;4.20;;;;;;;-2.57;75.73;102926.25;5012926;28;20068;-81
2023/03/01 03:23:07;;;;;;;9.73;5.05;;;;;;;-2.67;76.67;102918.75;5012126;28;20033;-81
2023/03/01 03:25:32;;;;;;;11.57;5.10;;;;;;;-2.65;76.02;102923.16;5011915;28;20485;-81
2023/03/01 03:27:58;;;;;;;9.23;4.75;;;;;;;-2.62;76.18;102925.03;5012913;28;20037;-81
2023/03/01 03:30:26;;;;;;;9.98;5.18;;;;;;;-2.61;75.74;102925.94;5012346;28;20427;-82
2023/03/01 03:32:52;;;;;;;10.10;5.28;;;;;;;-2.68;75.65;102917.84;5012706;28;20026;-82
2023/03/01 03:35:24;;;;;;;11.45;5.70;;;;;;;-2.66;75.69;102915.44;5012505;28;20026;-81
2023/03/01 03:38:03;;;;;;;10.68;5.57;;;;;;;-2.65;76.62;102918.06;5012720;28;20025;-81
2023/03/01 03:40:30;;;;;;;10.55;5.38;;;;;;;-2.66;76.03;102917.97;5012531;28;20030;-81
2023/03/01 03:42:58;;;;;;;9.23;4.88;;;;;;;-2.72;76.46;102912.44;5011724;28;20029;-82
2023/03/01 03:45:23;;;;;;;11.55;5.50;;;;;;;-2.71;77.10;102925.28;5012646;28;20037;-81
2023/03/01 03:47:49;;;;;;;11.82;5.88;;;;;;;-2.72;77.78;102923.50;5012132;28;20036;-82
2023/03/01 03:50:18;;;;;;;12.40;5.57;;;;;;;-2.70;75.78;102928.69;5012369;28;20033;-82
2023/03/01 03:52:44;;;;;;;11.45;5.47;;;;;;;-2.73;77.11;102920.81;5012560;28;20061;-81
2023/03/01 03:55:11;;;;;;;10.75;5.15;;;;;;;-2.74;77.46;102916.50;5013105;28;20022;-82
2023/03/01 03:57:38;;;;;;;12.20;5.65;;;;;;;-2.80;78.00;102919.50;5011721;28;20034;-81
2023/03/01 04:00:05;;;;;;;13.05;5.90;;;;;;;-2.81;77.77;102916.09;5012857;28;20076;-81
2023/03/01 04:02:31;;;;;;;11.88;6.00;;;;;;;-2.80;77.40;102916.94;5012296;28;20148;-81
2023/03/01 04:04:59;;;;;;;13.82;5.93;;;;;;;-2.85;78.06;102908.13;5014198;28;20116;-81
2023/03/01 04:07:24;;;;;;;10.77;5.45;;;;;;;-2.88;77.16;102903.72;5015911;28;20410;-81
2023/03/01 04:09:51;;;;;;;9.93;5.22;;;;;;;-2.97;76.42;102888.66;5016442;28;20026;-81
2023/03/01 04:12:20;;;;;;;10.48;5.00;;;;;;;-2.89;77.49;102893.41;5015692;28;20494;-82
2023/03/01 04:14:45;;;;;;;10.48;5.38;;;;;;;-2.90;77.87;102900.16;5016049;28;20026;-82
2023/03/01 04:17:10;;;;;;;11.32;5.13;;;;;;;-2.90;78.55;102895.09;5016501;28;20044;-82
2023/03/01 04:19:36;;;;;;;11.32;5.25;;;;;;;-2.95;77.77;102887.13;5015431;28;20149;-82
2023/03/01 04:22:09;;;;;;;10.82;5.00;;;;;;;-2.96;76.90;102890.44;5016424;28;20057;-82
2023/03/01 04:24:35;;;;;;;9.60;4.90;;;;;;;-2.99;77.60;102890.22;5015470;28;20453;-81
2023/03/01 04:27:01;;;;;;;8.82;4.60;;;;;;;-2.98;77.41;102896.16;5015588;28;20036;-82
2023/03/01 04:29:26;;;;;;;9.55;4.40;;;;;;;-2.97;77.01;102893.75;5015681;28;20048;-82
2023/03/01 04:31:51;;;;;;;7.55;4.03;;;;;;;-2.98;77.20;102884.34;5014986;28;20041;-82
2023/03/01 04:34:17;;;;;;;7.35;3.88;;;;;;;-3.02;76.34;102889.97;5015846;28;20041;-82
2023/03/01 04:36:42;;;;;;;8.48;4.53;;;;;;;-3.00;77.80;102898.59;5015674;28;20025;-82
2023/03/01 04:39:11;;;;;;;8.00;4.10;;;;;;;-3.01;77.31;102889.19;5015079;28;20034;-82
2023/03/01 04:41:38;;;;;;;8.38;4.20;;;;;;;-3.02;77.25;102886.56;5015414;28;20076;-82
2023/03/01 04:44:04;;;;;;;7.25;3.55;;;;;;;-3.02;76.67;102882.34;5015710;28;20022;-82
2023/03/01 04:46:30;;;;;;;6.73;3.50;;;;;;;-3.02;76.06;102873.84;5014763;28;20077;-82
2023/03/01 04:48:55;;;;;;;5.28;3.35;;;;;;;-3.02;76.29;102882.34;5015783;28;20034;-82
2023/03/01 04:51:20;;;;;;;5.38;3.20;;;;;;;-3.02;76.14;102864.56;5027326;28;20033;-82
2023/03/01 04:53:46;;;;;;;4.88;3.00;;;;;;;-3.00;75.92;102864.69;5034323;28;20030;-82
2023/03/01 04:56:13;;;;;;;4.63;2.80;;;;;;;-3.05;76.08;102864.38;5035001;28;20026;-82
2023/03/01 04:58:39;;;;;;;3.83;2.70;;;;;;;-3.04;75.92;102865.22;5034912;28;20557;-82
2023/03/01 05:01:17;;;;;;;6.18;3.58;;;;;;;-3.07;77.24;102865.00;5034213;28;20057;-82
2023/03/01 05:03:48;;;;;;;6.25;3.50;;;;;;;-3.10;76.33;102860.59;5034944;28;20457;-82
2023/03/01 05:06:14;;;;;;;6.28;3.40;;;;;;;-3.10;76.79;102868.22;5035145;28;20025;-82
2023/03/01 05:08:41;;;;;;;5.63;3.20;;;;;;;-3.15;76.89;102864.44;5033204;28;20401;-82
2023/03/01 05:11:08;;;;;;;7.57;3.90;;;;;;;-3.12;76.81;102877.38;5034946;28;20453;-82
2023/03/01 05:13:35;;;;;;;6.30;3.60;;;;;;;-3.16;78.30;102875.41;5034983;28;20488;-82
2023/03/01 05:16:02;;;;;;;8.77;4.60;;;;;;;-3.21;79.68;102876.69;5034069;28;20021;-83
2023/03/01 05:18:30;;;;;;;10.73;5.15;;;;;;;-3.18;77.94;102871.84;5034679;28;20034;-82
2023/03/01 05:21:05;;;;;;;8.60;4.63;;;;;;;-3.19;78.47;102870.06;5034634;28;20021;-82
2023/03/01 05:23:31;;;;;;;9.43;4.53;;;;;;;-3.21;77.51;102869.06;5034467;28;20057;-82
2023/03/01 05:26:02;;;;;;;10.50;4.72;;;;;;;-3.26;77.46;102854.38;5033899;28;20048;-82
2023/03/01 05:28:30;;;;;;;8.25;4.20;;;;;;;-3.24;78.33;102848.53;5033404;28;20025;-82
2023/03/01 05:30:56;;;;;;;13.20;5.47;;;;;;;-3.29;79.79;102840.56;5034738;28;20029;-82
2023/03/01 05:33:22;;;;;;;10.63;5.10;;;;;;;-3.35;79.79;102838.47;5034421;28;20022;-82
2023/03/01 05:35:49;;;;;;;12.10;5.72;;;;;;;-3.32;79.33;102827.66;5033521;28;20021;-82
2023/03/01 05:38:15;;;;;;;12.23;5.40;;;;;;;-3.29;77.67;102832.94;5034810;28;20096;-82
2023/03/01 05:40:43;;;;;;;11.18;5.47;;;;;;;-3.30;78.93;102831.19;5034197;28;20539;-82
2023/03/01 05:43:09;;;;;;;11.52;5.18;;;;;;;-3.36;79.93;102824.00;5031831;28;20029;-82
2023/03/01 05:45:37;;;;;;;8.90;4.88;;;;;;;-3.30;77.79;102826.09;5033939;28;20032;-82
2023/03/01 05:48:02;;;;;;;9.77;5.20;;;;;;;-3.35;78.88;102824.91;5034049;28;20060;-82
2023/03/01 05:50:29;;;;;;;10.15;4.95;;;;;;;-3.35;79.12;102825.75;5033145;28;20426;-82
2023/03/01 05:53:08;;;;;;;9.90;4.78;;;;;;;-3.34;78.39;102819.91;5034669;28;20029;-83
2023/03/01 05:55:35;;;;;;;10.75;5.13;;;;;;;-3.36;79.64;102818.91;5034064;28;20033;-82
2023/03/01 05:58:03;;;;;;;9.65;4.90;;;;;;;-3.34;79.06;102819.03;5033109;28;20439;-82
2023/03/01 06:00:30;;;;;;;7.93;4.40;;;;;;;-3.36;78.78;102824.00;5033539;28;20397;-81
2023/03/01 06:02:57;;;;;;;7.72;4.10;;;;;;;-3.36;78.30;102831.59;5034167;28;20021;-82
2023/03/01 06:05:23;;;;;;;7.60;4.10;;;;;;;-3.35;78.14;102832.50;5033500;28;20072;-82
2023/03/01 06:07:48;;;;;;;7.53;3.70;;;;;;;-3.37;77.91;102832.38;5021026;28;20089;-83
2023/03/01 06:10:14;;;;;;;6.50;3.40;;;;;;;-3.39;77.52;102825.44;5013209;28;20453;-82
2023/03/01 06:12:41;;;;;;;6.72;3.53;;;;;;;-3.38;78.13;102834.81;5014010;28;20021;-82
2023/03/01 06:15:09;;;;;;;6.75;3.70;;;;;;;-3.42;79.18;102829.50;5014141;28;20026;-82
2023/03/01 06:17:37;;;;;;;9.07;4.50;;;;;;;-3.43;79.11;102832.81;5013364;28;20101;-82
2023/03/01 06:20:05;;;;;;;7.97;4.20;;;;;;;-3.42;79.41;102823.56;5014071;28;20025;-82
2023/03/01 06:22:30;;;;;;;7.07;4.15;;;;;;;-3.43;79.77;102827.72;5014024;28;20101;-82
2023/03/01 06:24:55;;;;;;;7.70;4.15;;;;;;;-3.43;80.55;102820.13;5013375;28;20434;-82
2023/03/01 06:27:20;;;;;;;7.78;4.00;;;;;;;-3.42;79.25;102818.47;5012959;28;20091;-82
2023/03/01 06:29:46;;;;;;;9.05;4.43;;;;;;;-3.46;80.80;102830.06;5013683;28;20109;-83
2023/03/01 06:32:11;;;;;;;12.15;5.70;;;;;;;-3.48;81.37;102828.16;5013452;28;20084;-82
2023/03/01 06:34:36;;;;;;;11.52;5.80;;;;;;;-3.49;82.12;102824.75;5013751;28;20026;-82
2023/03/01 06:37:04;;;;;;;14.10;6.15;;;;;;;-3.49;81.40;102824.75;5014052;28;20029;-82
2023/03/01 06:39:30;;;;;;;14.63;6.50;;;;;;;-3.45;81.57;102825.84;5012976;28;20057;-82
2023/03/01 06:41:56;;;;;;;13.13;5.72;;;;;;;-3.44;80.11;102831.06;5013900;28;20112;-82
2023/03/01 06:44:21;;;;;;;11.57;5.30;;;;;;;-3.42;79.80;102831.19;5013654;28;20101;-83
2023/03/01 06:46:46;;;;;;;9.52;4.60;;;;;;;-3.37;79.58;102844.19;5012384;28;20029;-82
2023/03/01 06:49:12;;;;;;;10.10;4.38;;;;;;;-3.36;79.19;102839.22;5013724;28;20029;-82
2023/03/01 06:51:37;;;;;;;9.13;4.35;;;;;;;-3.35;79.37;102830.84;5013247;28;20029;-82
2023/03/01 06:54:04;;;;;;;8.63;3.90;;;;;;;-3.31;79.84;102840.47;5012970;28;20018;-81
2023/03/01 06:56:30;;;;;;;;;;;;;;;-3.29;79.59;102833.84;5013677;28;20025;-84
2023/03/01 06:58:55;;;;;;;8.95;4.75;;;;;;;-3.23;81.84;102832.50;5013316;28;20354;-84
2023/03/01 07:01:26;;;;;;;9.73;4.40;;;;;;;-3.11;80.14;102829.25;5012728;28;20045;-83
2023/03/01 07:03:52;;;;;;;8.45;4.20;;;;;;;-2.97;79.43;102830.22;5013330;28;20528;-77
2023/03/01 07:06:17;;;;;;;8.32;4.43;;;;;;;-2.51;80.35;102824.13;5013420;28;20109;-82
2023/03/01 07:08:42;;;;;;;10.32;4.80;;;;;;;-2.10;79.70;102817.59;5012088;28;20050;-82
2023/03/01 07:11:08;;;;;;;14.18;6.53;;;;;;;-1.69;77.08;102819.50;5013427;28;20025;-82
2023/03/01 07:13:33;;;;;;;14.60;6.13;;;;;;;-1.70;77.25;102817.72;5012448;28;20026;-82
2023/03/01 07:15:58;;;;;;;13.15;5.95;;;;;;;-1.81;76.88;102824.66;5013380;28;20037;-82
2023/03/01 07:18:24;;;;;;;13.88;6.22;;;;;;;-1.97;76.96;102825.25;5013430;28;20034;-82
2023/03/01 07:20:49;;;;;;;12.82;6.07;;;;;;;-2.03;77.02;102829.94;5012128;28;20022;-82
2023/03/01 07:23:15;;;;;;;16.35;7.57;;;;;;;-2.20;77.68;102831.34;5012953;28;20058;-83
2023/03/01 07:25:40;;;;;;;18.33;8.40;;;;;;;-2.22;77.71;102838.88;5012807;28;20471;-82
2023/03/01 07:28:05;;;;;;;18.08;8.25;;;;;;;-2.23;77.93;102841.28;5012505;28;20041;-82
2023/03/01 07:30:31;;;;;;;18.25;8.45;;;;;;;-2.26;78.10;102841.09;5012717;28;20044;-82
2023/03/01 07:32:58;;;;;;;18.25;8.52;;;;;;;-2.31;77.81;102843.31;5013238;28;20068;-82
2023/03/01 07:35:25;;;;;;;17.83;9.10;;;;;;;-2.24;77.76;102849.69;5012384;28;20018;-82
2023/03/01 07:37:50;;;;;;;18.92;8.73;;;;;;;-2.18;77.71;102850.13;5013331;28;20037;-82
2023/03/01 07:40:16;;;;;;;16.35;8.10;;;;;;;-2.15;78.09;102845.28;5017178;28;20021;-82
2023/03/01 07:42:41;;;;;;;17.40;8.35;;;;;;;-2.12;78.28;102849.69;5015671;28;20036;-82
2023/03/01 07:45:10;;;;;;;18.58;8.82;;;;;;;-2.04;77.41;102846.88;5016852;28;20030;-82
2023/03/01 07:47:36;;;;;;;18.95;8.93;;;;;;;-1.98;77.74;102843.88;5016569;28;20030;-82
2023/03/01 07:50:02;;;;;;;19.33;9.27;;;;;;;-1.87;77.37;102853.13;5016232;28;20032;-82
2023/03/01 07:52:28;;;;;;;19.17;9.90;;;;;;;-1.80;77.13;102845.91;5016571;28;20402;-82
2023/03/01 07:54:53;;;;;;;20.05;10.40;;;;;;;-1.72;76.75;102842.19;5016776;28;20026;-82
2023/03/01 07:57:18;;;;;;;19.95;9.63;;;;;;;-1.66;76.97;102842.63;5015817;28;20394;-81
2023/03/01 07:59:44;;;;;;;20.60;10.35;;;;;;;-1.61;76.71;102838.72;5017148;28;20148;-81
2023/03/01 08:02:11;;;;;;;21.65;10.05;;;;;;;-1.50;75.95;102833.44;5016312;28;20032;-82
2023/03/01 08:04:36;;;;;;;20.02;10.52;;;;;;;-1.53;75.79;102820.53;5015696;28;20021;-83
2023/03/01 08:07:04;;;;;;;20.33;10.13;;;;;;;-1.34;75.90;102840.44;5016278;28;20486;-82
2023/03/01 08:09:30;;;;;;;20.13;9.43;;;;;;;-1.28;74.98;102836.63;5019603;28;20041;-82
2023/03/01 08:11:56;;;;;;;16.52;8.77;;;;;;;-1.25;74.85;102834.28;5015729;28;20026;-82
2023/03/01 08:14:21;;;;;;;17.70;8.93;;;;;;;-1.19;74.49;102831.25;5016673;28;20092;-83
2023/03/01 08:16:49;;;;;;;17.92;8.68;;;;;;;-1.06;74.65;102843.13;5019978;28;20037;-82
2023/03/01 08:19:14;;;;;;;18.38;8.85;;;;;;;-1.00;74.32;102837.53;5034713;28;20450;-83
2023/03/01 08:21:39;;;;;;;19.42;9.20;;;;;;;-0.92;74.04;102838.94;5029307;28;20053;-83
2023/03/01 08:24:06;;;;;;;19.77;8.95;;;;;;;-0.83;74.01;102836.97;5015534;28;20022;-82
2023/03/01 08:26:32;;;;;;;20.33;9.25;;;;;;;-0.75;73.62;102842.56;5016555;28;20124;-82
2023/03/01 08:28:59;;;;;;;18.73;8.98;;;;;;;-0.63;72.55;102832.25;5035905;28;20026;-82
2023/03/01 08:31:36;;;;;;;18.90;9.00;;;;;;;-0.55;72.31;102828.50;5035141;28;20036;-82
2023/03/01 08:34:02;;;;;;;;;;;;;;;-0.42;71.30;102830.16;5036348;28;20095;-84
2023/03/01 08:36:34;;;;;;;18.98;8.88;;;;;;;-0.27;71.11;102834.41;5035619;28;19920;-85
2023/03/01 08:39:00;;;;;;;19.80;9.18;;;;;;;-0.18;70.28;102825.66;5034838;28;20382;-82
2023/03/01 08:41:26;;;;;;;18.08;8.85;;;;;;;-0.04;70.29;102823.06;5035830;28;20021;-82
2023/03/01 08:43:52;;;;;;;19.08;8.80;;;;;;;0.02;69.91;102812.34;5035517;28;20462;-83
2023/03/01 08:46:17;;;;;;;17.17;8.73;;;;;;;0.10;69.49;102814.59;5035001;28;20029;-83
2023/03/01 08:48:43;;;;;;;17.25;8.63;;;;;;;0.26;68.81;102813.81;5035307;28;20413;-81
2023/03/01 08:51:26;;;;;;;17.60;8.68;;;;;;;0.38;68.09;102803.41;5034755;28;20521;-84
2023/03/01 08:53:52;;;;;;;17.75;8.48;;;;;;;0.43;68.20;102801.13;5034496;28;20036;-83
2023/03/01 08:56:18;;;;;;;18.73;8.57;;;;;;;0.52;67.11;102803.34;5019964;28;20034;-84
2023/03/01 08:58:48;;;;;;;17.58;8.52;;;;;;;0.66;67.64;102807.59;5015389;28;20113;-85
2023/03/01 09:01:16;;;;;;;17.17;8.57;;;;;;;0.79;67.08;102816.81;5015004;28;20493;-88
2023/03/01 09:03:43;;;;;;;15.93;7.93;;;;;;;0.89;64.70;102818.22;5016353;28;20037;-88
2023/03/01 09:06:09;;;;;;;17.77;8.50;;;;;;;0.97;65.65;102805.84;5015159;28;20084;-83
2023/03/01 09:08:40;;;;;;;18.15;8.45;;;;;;;1.01;65.41;102800.13;5014223;28;20474;-84
2023/03/01 09:11:07;;;;;;;16.02;7.85;;;;;;;1.12;65.26;102805.84;5014032;28;20026;-85
2023/03/01 09:13:33;;;;;;;17.50;8.23;;;;;;;1.16;64.76;102800.09;5014508;28;20026;-83
2023/03/01 09:16:01;;;;;;;18.70;8.00;;;;;;;1.25;64.95;102800.59;5014375;28;20750;-83
2023/03/01 09:18:26;;;;;;;17.35;8.85;;;;;;;1.32;63.59;102795.03;5014798;28;20017;-83
2023/03/01 09:20:54;;;;;;;18.70;8.15;;;;;;;1.35;62.51;102789.19;5014737;28;20025;-83
2023/03/01 09:23:20;;;;;;;17.55;8.32;;;;;;;1.41;62.32;102793.75;5015431;28;20030;-83
2023/03/01 09:25:45;;;;;;;18.13;8.80;;;;;;;1.46;61.54;102790.66;5024097;28;20075;-82
2023/03/01 09:28:10;;;;;;;15.82;7.95;;;;;;;1.56;62.26;102793.69;5022849;28;20076;-82
2023/03/01 09:30:36;;;;;;;16.85;7.80;;;;;;;1.55;61.05;102790.28;5012896;28;20467;-82
2023/03/01 09:33:01;;;;;;;18.85;8.20;;;;;;;1.68;61.74;102781.56;5013025;28;20028;-85
2023/03/01 09:35:27;;;;;;;17.92;8.40;;;;;;;1.68;62.38;102779.88;5012402;28;20536;-84
2023/03/01 09:38:01;;;;;;;16.55;8.20;;;;;;;1.86;61.88;102779.06;5013110;28;20021;-85
2023/03/01 09:40:28;;;;;;;18.40;8.25;;;;;;;1.94;62.21;102772.66;5013084;28;20105;-85
2023/03/01 09:43:19;;;;;;;16.50;7.50;;;;;;;2.17;62.46;102767.81;5013656;28;20106;-85
2023/03/01 09:45:54;;;;;;;16.92;8.20;;;;;;;2.34;62.41;102766.09;5014484;28;20364;-87
2023/03/01 09:48:25;;;;;;;16.40;7.90;;;;;;;2.34;58.98;102763.53;5014319;28;20022;-86
2023/03/01 09:50:54;;;;;;;16.70;7.80;;;;;;;2.41;58.17;102759.59;5015133;28;20382;-86
2023/03/01 09:53:35;;;;;;;16.38;7.55;;;;;;;2.45;58.79;102753.84;5014790;28;20028;-86
2023/03/01 09:56:15;;;;;;;18.08;8.07;;;;;;;2.61;59.45;102755.47;5013766;28;20030;-86
2023/03/01 09:58:54;;;;;;;16.80;7.93;;;;;;;2.85;58.39;102760.88;5014514;28;20034;-87
2023/03/01 10:01:35;;;;;;;15.07;7.68;;;;;;;2.69;55.31;102761.84;5013645;28;20022;-86
2023/03/01 10:04:19;;;;;;;17.45;7.60;;;;;;;2.88;56.91;102761.03;5013843;28;20070;-85
2023/03/01 10:06:58;;;;;;;14.77;7.93;;;;;;;2.83;54.78;102752.22;5014078;28;20062;-85
2023/03/01 10:09:28;;;;;;;16.45;7.80;;;;;;;2.78;54.69;102757.13;5013836;28;20029;-86
2023/03/01 10:11:56;;;;;;;17.17;8.10;;;;;;;2.76;55.60;102739.94;5014949;28;20150;-86
2023/03/01 10:14:31;;;;;;;15.80;7.70;;;;;;;2.90;56.40;102733.78;5014354;28;20430;-86
2023/03/01 10:17:28;;;;;;;16.38;7.70;;;;;;;2.97;55.71;102731.47;5013941;28;20061;-86
2023/03/01 10:19:55;;;;;;;16.67;8.00;;;;;;;2.99;53.79;102737.56;4991522;28;20088;-84
2023/03/01 10:22:27;;;;;;;16.58;7.70;;;;;;;3.05;55.45;102723.34;5014253;28;20048;-86
2023/03/01 10:24:55;;;;;;;17.70;7.93;;;;;;;2.98;54.76;102711.06;5030136;28;20025;-86
2023/03/01 10:27:31;;;;;;;16.42;7.65;;;;;;;3.19;55.73;102712.84;5039104;23;20053;-86
2023/03/01 10:30:10;;;;;;;15.40;7.75;;;;;;;3.12;54.74;102709.13;5034282;28;20021;-86
2023/03/01 10:32:36;;;;;;;17.25;8.02;;;;;;;2.83;54.18;102710.34;5032035;23;20049;-83
2023/03/01 10:35:16;;;;;;;15.85;8.25;;;;;;;2.93;54.62;102709.94;5013549;28;20022;-83
2023/03/01 10:37:57;;;;;;;16.00;8.18;;;;;;;3.05;54.74;102710.50;5012872;28;20397;-83
2023/03/01 10:40:23;;;;;;;16.10;7.78;;;;;;;3.17;55.44;102704.19;5178240;23;20060;-83
2023/03/01 10:42:49;;;;;;;17.30;8.10;;;;;;;3.25;53.09;102695.13;5013382;28;20025;-86
2023/03/01 10:45:27;;;;;;;16.17;8.18;;;;;;;3.28;53.78;102699.53;5012531;28;20092;-86
2023/03/01 10:48:25;;;;;;;16.35;8.30;;;;;;;3.28;53.37;102700.41;5013775;28;20038;-84
2023/03/01 10:50:57;;;;;;;16.05;8.13;;;;;;;3.34;52.78;102707.50;4997016;28;20034;-84
2023/03/01 10:53:51;;;;;;;17.85;8.30;;;;;;;3.41;52.26;102701.84;4993326;28;20042;-82
2023/03/01 10:56:18;;;;;;;16.50;7.90;;;;;;;3.48;52.47;102697.84;4985009;28;20380;-82
2023/03/01 10:59:04;;;;;;;16.33;7.85;;;;;;;3.60;51.62;102687.25;4993049;28;20532;-83
2023/03/01 11:01:32;;;;;;;14.77;7.60;;;;;;;3.79;51.82;102694.03;4994044;28;20030;-84
2023/03/01 11:04:07;;;;;;;16.25;7.50;;;;;;;3.86;50.87;102699.50;4993994;28;20531;-83
2023/03/01 11:06:38;;;;;;;17.35;8.27;;;;;;;3.76;51.01;102688.78;4992608;28;20093;-82
2023/03/01 11:09:23;;;;;;;16.95;8.20;;;;;;;3.89;50.58;102692.75;4993889;28;20467;-83
2023/03/01 11:11:53;;;;;;;16.73;8.55;;;;;;;3.75;50.59;102700.72;4993599;28;20091;-83
2023/03/01 11:14:22;;;;;;;17.60;8.85;;;;;;;3.79;50.74;102699.16;4992870;28;20054;-82
2023/03/01 11:16:57;;;;;;;17.48;8.65;;;;;;;3.72;50.29;102700.59;4993377;28;20026;-83
2023/03/01 11:19:23;;;;;;;18.30;8.63;;;;;;;3.72;50.25;102687.75;4993525;28;20041;-84
2023/03/01 11:22:11;;;;;;;16.15;7.95;;;;;;;3.81;51.34;102692.41;4992542;28;20022;-83
2023/03/01 11:24:55;;;;;;;16.27;8.23;;;;;;;3.91;50.61;102696.25;4992696;28;20062;-82
2023/03/01 11:27:46;;;;;;;18.02;8.45;;;;;;;3.99;50.17;102693.22;4992713;28;20156;-83
2023/03/01 11:30:40;;;;;;;17.35;8.60;;;;;;;3.92;49.74;102691.16;4991349;28;20117;-82
2023/03/01 11:33:08;;;;;;;17.90;8.38;;;;;;;3.84;50.49;102677.13;4993374;28;20470;-82